QFA2016 YMML-YSSY
Flight info
| Callsign | QFA2016 |
|---|---|
| Flight time | 1h 14m |
| Altitude | 35000 |
| Route | DOSEL2/34 DOSEL Y59 RIVET |
| Aircraft | A320/M-SDE3FGHIRWY/LB1 |
Departure
| Time | 2026-05-04 11:05 |
|---|---|
| Airport | Melbourne Airport (YMML) |
Arrival
| Time | 2026-05-04 12:19 |
|---|---|
| Airport | Sydney Kingsford Smith International Airport (YSSY) |
| Time | Latitude | Longitude | Altitude | Speed | Heading |
|---|---|---|---|---|---|
| 2026-05-04 10:39 | -37.67637 | 144.84707 | 376 ft | 0 kts | 351° |
| 2026-05-04 10:54 | -37.67862 | 144.84193 | 363 ft | 0 kts | 262° |
| 2026-05-04 10:56 | -37.67858 | 144.84225 | 366 ft | 0 kts | 262° |
| 2026-05-04 10:59 | -37.67859 | 144.84224 | 365 ft | 1 kts | 262° |
| 2026-05-04 10:59 | -37.67862 | 144.84202 | 363 ft | 4 kts | 260° |
| 2026-05-04 10:59 | -37.67865 | 144.84174 | 363 ft | 0 kts | 260° |
| 2026-05-04 11:01 | -37.67874 | 144.84065 | 362 ft | 5 kts | 284° |
| 2026-05-04 11:02 | -37.67857 | 144.84018 | 365 ft | 6 kts | 294° |
| 2026-05-04 11:02 | -37.67827 | 144.83975 | 368 ft | 7 kts | 324° |
| 2026-05-04 11:05 | -37.51218 | 144.87059 | 7359 ft | 270 kts | 20° |
| 2026-05-04 11:06 | -37.49529 | 144.88088 | 8341 ft | 269 kts | 20° |
| 2026-05-04 11:06 | -37.47841 | 144.89115 | 9334 ft | 269 kts | 19° |
| 2026-05-04 11:06 | -37.46163 | 144.90135 | 10283 ft | 270 kts | 19° |
| 2026-05-04 11:06 | -37.44471 | 144.91336 | 10780 ft | 291 kts | 29° |
| 2026-05-04 11:08 | -37.34770 | 145.07406 | 15690 ft | 348 kts | 46° |
| 2026-05-04 11:10 | -37.24513 | 145.25468 | 20503 ft | 372 kts | 45° |
| 2026-05-04 11:12 | -37.13951 | 145.43987 | 24027 ft | 374 kts | 44° |
| 2026-05-04 11:12 | -37.12435 | 145.46637 | 24026 ft | 374 kts | 44° |
| 2026-05-04 11:12 | -37.10917 | 145.49285 | 24025 ft | 374 kts | 44° |
| 2026-05-04 11:12 | -37.09397 | 145.51935 | 24059 ft | 375 kts | 44° |
| 2026-05-04 11:13 | -37.07867 | 145.54594 | 24461 ft | 378 kts | 44° |
| 2026-05-04 11:13 | -37.06322 | 145.57275 | 24989 ft | 381 kts | 45° |
| 2026-05-04 11:13 | -37.04764 | 145.59977 | 25528 ft | 384 kts | 45° |
| 2026-05-04 11:13 | -37.03197 | 145.62695 | 26056 ft | 387 kts | 45° |
| 2026-05-04 11:14 | -37.02685 | 145.63583 | 26234 ft | 388 kts | 45° |
| 2026-05-04 11:16 | -36.86809 | 145.91017 | 30710 ft | 418 kts | 44° |
| 2026-05-04 11:16 | -36.85089 | 145.93968 | 31029 ft | 421 kts | 44° |
| 2026-05-04 11:16 | -36.83360 | 145.96940 | 31364 ft | 424 kts | 44° |
| 2026-05-04 11:17 | -36.81629 | 145.99922 | 31806 ft | 424 kts | 44° |
| 2026-05-04 11:17 | -36.79896 | 146.02906 | 32197 ft | 425 kts | 43° |
| 2026-05-04 11:19 | -36.67618 | 146.23903 | 34797 ft | 433 kts | 43° |
| 2026-05-04 11:19 | -36.65830 | 146.26945 | 34996 ft | 437 kts | 43° |
| 2026-05-04 11:19 | -36.62282 | 146.32985 | 35057 ft | 434 kts | 43° |
| 2026-05-04 11:20 | -36.58720 | 146.39048 | 35061 ft | 435 kts | 43° |
| 2026-05-04 11:20 | -36.55134 | 146.45135 | 35060 ft | 435 kts | 43° |
| 2026-05-04 11:22 | -36.40745 | 146.69402 | 35045 ft | 439 kts | 43° |
| 2026-05-04 11:23 | -36.37111 | 146.75520 | 35050 ft | 441 kts | 44° |
| 2026-05-04 11:25 | -36.24280 | 146.96994 | 35060 ft | 446 kts | 44° |
| 2026-05-04 11:25 | -36.20564 | 147.03176 | 35057 ft | 447 kts | 44° |
| 2026-05-04 11:27 | -36.03772 | 147.31030 | 35069 ft | 452 kts | 44° |
| 2026-05-04 11:28 | -35.99998 | 147.37255 | 35075 ft | 453 kts | 44° |
| 2026-05-04 11:28 | -35.96216 | 147.43490 | 35071 ft | 454 kts | 44° |
| 2026-05-04 11:29 | -35.92428 | 147.49725 | 35079 ft | 455 kts | 44° |
| 2026-05-04 11:29 | -35.88618 | 147.55966 | 35078 ft | 455 kts | 44° |
| 2026-05-04 11:33 | -35.61817 | 147.99632 | 35101 ft | 460 kts | 44° |
| 2026-05-04 11:33 | -35.57945 | 148.05900 | 35101 ft | 461 kts | 44° |
| 2026-05-04 11:34 | -35.54063 | 148.12176 | 35104 ft | 461 kts | 44° |
| 2026-05-04 11:34 | -35.50164 | 148.18462 | 35099 ft | 462 kts | 44° |
| 2026-05-04 11:35 | -35.46285 | 148.24690 | 35099 ft | 464 kts | 44° |
| 2026-05-04 11:35 | -35.42366 | 148.30971 | 35102 ft | 464 kts | 44° |
| 2026-05-04 11:36 | -35.38448 | 148.37262 | 35111 ft | 464 kts | 44° |
| 2026-05-04 11:36 | -35.34531 | 148.43542 | 35111 ft | 464 kts | 44° |
| 2026-05-04 11:37 | -35.30628 | 148.49780 | 35112 ft | 464 kts | 44° |
| 2026-05-04 11:37 | -35.26695 | 148.56052 | 35114 ft | 464 kts | 44° |
| 2026-05-04 11:38 | -35.22772 | 148.62293 | 34873 ft | 460 kts | 44° |
| 2026-05-04 11:38 | -35.20832 | 148.65381 | 34635 ft | 457 kts | 43° |
| 2026-05-04 11:38 | -35.18896 | 148.68456 | 34399 ft | 455 kts | 43° |
| 2026-05-04 11:39 | -35.16975 | 148.71506 | 34175 ft | 452 kts | 43° |
| 2026-05-04 11:39 | -35.15059 | 148.74542 | 33907 ft | 449 kts | 43° |
| 2026-05-04 11:40 | -35.03810 | 148.92334 | 32327 ft | 435 kts | 43° |
| 2026-05-04 11:41 | -35.01960 | 148.95246 | 32074 ft | 433 kts | 43° |
| 2026-05-04 11:41 | -35.00123 | 148.98138 | 31822 ft | 431 kts | 43° |
| 2026-05-04 11:41 | -34.98292 | 149.01018 | 31567 ft | 428 kts | 43° |
| 2026-05-04 11:41 | -34.96464 | 149.03883 | 31424 ft | 426 kts | 43° |
| 2026-05-04 11:42 | -34.94656 | 149.06717 | 31181 ft | 424 kts | 41° |
| 2026-05-04 11:42 | -34.92842 | 149.09564 | 30931 ft | 422 kts | 41° |
| 2026-05-04 11:42 | -34.91053 | 149.12382 | 30694 ft | 419 kts | 42° |
| 2026-05-04 11:42 | -34.89273 | 149.15184 | 30452 ft | 417 kts | 42° |
| 2026-05-04 11:43 | -34.87523 | 149.17928 | 30214 ft | 414 kts | 42° |
| 2026-05-04 11:43 | -34.85759 | 149.20687 | 29933 ft | 412 kts | 41° |
| 2026-05-04 11:43 | -34.83997 | 149.23433 | 29638 ft | 410 kts | 41° |
| 2026-05-04 11:43 | -34.82248 | 149.26152 | 29366 ft | 407 kts | 41° |
| 2026-05-04 11:44 | -34.80508 | 149.28861 | 29099 ft | 405 kts | 41° |
| 2026-05-04 11:44 | -34.78776 | 149.31556 | 28818 ft | 407 kts | 41° |
| 2026-05-04 11:44 | -34.76965 | 149.34342 | 28547 ft | 430 kts | 42° |
| 2026-05-04 11:44 | -34.75058 | 149.37266 | 28272 ft | 452 kts | 43° |
| 2026-05-04 11:45 | -34.73291 | 149.40496 | 27996 ft | 467 kts | 53° |
| 2026-05-04 11:45 | -34.71784 | 149.44025 | 27731 ft | 470 kts | 54° |
| 2026-05-04 11:45 | -34.70282 | 149.47550 | 27468 ft | 469 kts | 54° |
| 2026-05-04 11:45 | -34.68774 | 149.51055 | 27210 ft | 467 kts | 54° |
| 2026-05-04 11:46 | -34.67280 | 149.54490 | 26955 ft | 465 kts | 54° |
| 2026-05-04 11:46 | -34.65763 | 149.57953 | 26699 ft | 462 kts | 53° |
| 2026-05-04 11:46 | -34.64255 | 149.61388 | 26449 ft | 460 kts | 53° |
| 2026-05-04 11:46 | -34.62750 | 149.64810 | 26194 ft | 458 kts | 53° |
| 2026-05-04 11:47 | -34.61248 | 149.68220 | 25947 ft | 456 kts | 53° |
| 2026-05-04 11:47 | -34.59755 | 149.71607 | 25700 ft | 454 kts | 53° |
| 2026-05-04 11:47 | -34.58271 | 149.74975 | 25451 ft | 453 kts | 53° |
| 2026-05-04 11:47 | -34.56790 | 149.78342 | 25211 ft | 451 kts | 54° |
| 2026-05-04 11:48 | -34.55339 | 149.81647 | 24978 ft | 449 kts | 54° |
| 2026-05-04 11:48 | -34.53872 | 149.84986 | 24740 ft | 448 kts | 54° |
| 2026-05-04 11:48 | -34.52409 | 149.88312 | 24496 ft | 446 kts | 53° |
| 2026-05-04 11:48 | -34.50951 | 149.91618 | 24259 ft | 444 kts | 53° |
| 2026-05-04 11:49 | -34.49496 | 149.94909 | 24021 ft | 441 kts | 53° |
| 2026-05-04 11:49 | -34.48056 | 149.98171 | 23446 ft | 436 kts | 53° |
| 2026-05-04 11:49 | -34.46631 | 150.01391 | 22821 ft | 432 kts | 53° |
| 2026-05-04 11:49 | -34.45218 | 150.04582 | 22247 ft | 427 kts | 54° |
| 2026-05-04 11:50 | -34.43820 | 150.07735 | 21673 ft | 423 kts | 54° |
| 2026-05-04 11:50 | -34.42452 | 150.10816 | 21145 ft | 419 kts | 54° |
| 2026-05-04 11:50 | -34.41078 | 150.13904 | 20607 ft | 416 kts | 54° |
| 2026-05-04 11:50 | -34.39713 | 150.16978 | 20097 ft | 412 kts | 54° |
| 2026-05-04 11:51 | -34.38362 | 150.20021 | 19589 ft | 409 kts | 54° |
| 2026-05-04 11:51 | -34.37018 | 150.23045 | 19079 ft | 406 kts | 54° |
| 2026-05-04 11:51 | -34.35686 | 150.26041 | 18571 ft | 403 kts | 54° |
| 2026-05-04 11:51 | -34.34360 | 150.29014 | 17999 ft | 400 kts | 54° |
| 2026-05-04 11:52 | -34.33046 | 150.31958 | 17471 ft | 396 kts | 55° |
| 2026-05-04 11:52 | -34.31743 | 150.34867 | 16942 ft | 392 kts | 54° |
| 2026-05-04 11:52 | -34.30450 | 150.37750 | 16393 ft | 388 kts | 55° |
| 2026-05-04 11:52 | -34.29168 | 150.40606 | 15850 ft | 384 kts | 55° |
| 2026-05-04 11:53 | -34.27918 | 150.43398 | 15295 ft | 381 kts | 55° |
| 2026-05-04 11:53 | -34.27070 | 150.45293 | 14921 ft | 379 kts | 55° |
| 2026-05-04 11:53 | -34.25423 | 150.48982 | 14183 ft | 375 kts | 56° |
| 2026-05-04 11:53 | -34.24188 | 150.51746 | 13601 ft | 372 kts | 56° |
| 2026-05-04 11:55 | -34.15931 | 150.70155 | 10421 ft | 327 kts | 56° |
| 2026-05-04 11:55 | -34.14871 | 150.72527 | 10302 ft | 315 kts | 56° |
| 2026-05-04 11:56 | -34.13851 | 150.74804 | 10174 ft | 303 kts | 56° |
| 2026-05-04 11:56 | -34.12855 | 150.77014 | 9985 ft | 295 kts | 56° |
| 2026-05-04 11:56 | -34.11874 | 150.79179 | 9661 ft | 294 kts | 56° |
| 2026-05-04 11:56 | -34.10892 | 150.81343 | 9261 ft | 294 kts | 56° |
| 2026-05-04 11:57 | -34.09912 | 150.83503 | 8893 ft | 292 kts | 56° |
| 2026-05-04 11:57 | -34.08944 | 150.85647 | 8630 ft | 291 kts | 56° |
| 2026-05-04 11:57 | -34.08304 | 150.87067 | 8444 ft | 291 kts | 56° |
| 2026-05-04 11:57 | -34.07338 | 150.89209 | 8164 ft | 290 kts | 56° |
| 2026-05-04 11:58 | -34.06377 | 150.91343 | 7894 ft | 290 kts | 56° |
| 2026-05-04 11:58 | -34.05415 | 150.93477 | 7608 ft | 290 kts | 56° |
| 2026-05-04 11:58 | -34.04139 | 150.96301 | 7240 ft | 289 kts | 57° |
| 2026-05-04 11:58 | -34.03496 | 150.98609 | 6952 ft | 296 kts | 80° |
| 2026-05-04 11:59 | -34.03634 | 151.01092 | 6665 ft | 301 kts | 104° |
| 2026-05-04 11:59 | -34.04181 | 151.02661 | 6453 ft | 301 kts | 121° |
| 2026-05-04 11:59 | -34.05500 | 151.04568 | 6154 ft | 300 kts | 135° |
| 2026-05-04 11:59 | -34.06979 | 151.06325 | 5992 ft | 297 kts | 143° |
| 2026-05-04 12:00 | -34.08713 | 151.07648 | 6005 ft | 295 kts | 158° |
| 2026-05-04 12:00 | -34.10647 | 151.08416 | 6011 ft | 292 kts | 172° |
| 2026-05-04 12:00 | -34.12633 | 151.08926 | 5932 ft | 291 kts | 172° |
| 2026-05-04 12:00 | -34.14601 | 151.09437 | 5741 ft | 285 kts | 172° |
| 2026-05-04 12:01 | -34.16504 | 151.09935 | 5608 ft | 275 kts | 172° |
| 2026-05-04 12:01 | -34.18340 | 151.10416 | 5485 ft | 265 kts | 172° |
| 2026-05-04 12:02 | -34.19693 | 151.19990 | 3918 ft | 242 kts | 89° |
| 2026-05-04 12:03 | -34.20164 | 151.21905 | 3977 ft | 242 kts | 123° |
| 2026-05-04 12:03 | -34.21359 | 151.23232 | 4036 ft | 234 kts | 158° |
| 2026-05-04 12:03 | -34.22908 | 151.23584 | 4182 ft | 228 kts | 187° |
| 2026-05-04 12:03 | -34.24482 | 151.23410 | 4432 ft | 227 kts | 192° |
| 2026-05-04 12:04 | -34.26042 | 151.23160 | 4687 ft | 226 kts | 193° |
| 2026-05-04 12:04 | -34.27601 | 151.22907 | 4905 ft | 227 kts | 193° |
| 2026-05-04 12:04 | -34.29168 | 151.22654 | 4992 ft | 227 kts | 193° |
| 2026-05-04 12:04 | -34.30719 | 151.22340 | 4994 ft | 223 kts | 206° |
| 2026-05-04 12:05 | -34.31929 | 151.21311 | 5004 ft | 209 kts | 240° |
| 2026-05-04 12:05 | -34.32384 | 151.19733 | 5000 ft | 207 kts | 274° |
| 2026-05-04 12:05 | -34.31934 | 151.17944 | 5007 ft | 237 kts | 304° |
| 2026-05-04 12:05 | -34.30732 | 151.16688 | 5000 ft | 226 kts | 334° |
| 2026-05-04 12:06 | -34.29228 | 151.16464 | 5004 ft | 217 kts | 7° |
| 2026-05-04 12:06 | -34.27904 | 151.17319 | 5010 ft | 227 kts | 42° |
| 2026-05-04 12:06 | -34.27108 | 151.19001 | 5011 ft | 237 kts | 68° |
| 2026-05-04 12:06 | -34.26659 | 151.20925 | 5004 ft | 238 kts | 72° |
| 2026-05-04 12:07 | -34.26268 | 151.22864 | 4809 ft | 237 kts | 73° |
| 2026-05-04 12:07 | -34.25884 | 151.24799 | 4482 ft | 236 kts | 73° |
| 2026-05-04 12:07 | -34.25506 | 151.26718 | 4198 ft | 233 kts | 73° |
| 2026-05-04 12:07 | -34.25135 | 151.28607 | 3919 ft | 230 kts | 73° |
| 2026-05-04 12:08 | -34.24776 | 151.30456 | 3617 ft | 228 kts | 73° |
| 2026-05-04 12:08 | -34.24416 | 151.32309 | 3339 ft | 225 kts | 73° |
| 2026-05-04 12:08 | -34.24058 | 151.34142 | 3045 ft | 223 kts | 72° |
| 2026-05-04 12:08 | -34.23711 | 151.35958 | 2745 ft | 221 kts | 73° |
| 2026-05-04 12:09 | -34.23373 | 151.37763 | 2425 ft | 220 kts | 72° |
| 2026-05-04 12:09 | -34.23051 | 151.39565 | 2126 ft | 220 kts | 73° |
| 2026-05-04 12:09 | -34.22510 | 151.41230 | 2004 ft | 207 kts | 43° |
| 2026-05-04 12:09 | -34.21378 | 151.42138 | 1999 ft | 192 kts | 7° |
| 2026-05-04 12:10 | -34.20169 | 151.41986 | 2032 ft | 167 kts | 330° |
| 2026-05-04 12:10 | -34.19491 | 151.40995 | 2024 ft | 145 kts | 293° |
| 2026-05-04 12:10 | -34.19307 | 151.39862 | 2004 ft | 135 kts | 284° |
| 2026-05-04 12:10 | -34.19203 | 151.38741 | 2006 ft | 134 kts | 283° |
| 2026-05-04 12:11 | -34.19109 | 151.37636 | 2010 ft | 134 kts | 282° |
| 2026-05-04 12:11 | -34.18998 | 151.36515 | 2012 ft | 135 kts | 283° |
| 2026-05-04 12:11 | -34.18889 | 151.35391 | 2014 ft | 134 kts | 283° |
| 2026-05-04 12:11 | -34.18796 | 151.34272 | 2016 ft | 134 kts | 283° |
| 2026-05-04 12:12 | -34.18702 | 151.33153 | 2016 ft | 134 kts | 282° |
| 2026-05-04 12:12 | -34.18594 | 151.32033 | 2016 ft | 134 kts | 283° |
| 2026-05-04 12:12 | -34.18483 | 151.30915 | 2019 ft | 134 kts | 283° |
| 2026-05-04 12:12 | -34.18369 | 151.29792 | 2019 ft | 134 kts | 283° |
| 2026-05-04 12:13 | -34.18250 | 151.28674 | 2020 ft | 135 kts | 283° |
| 2026-05-04 12:14 | -34.13678 | 151.23786 | 2028 ft | 134 kts | 342° |
| 2026-05-04 12:15 | -34.12767 | 151.23507 | 2029 ft | 135 kts | 343° |
| 2026-05-04 12:15 | -34.11851 | 151.23248 | 2023 ft | 135 kts | 343° |
| 2026-05-04 12:15 | -34.10934 | 151.22999 | 2028 ft | 134 kts | 344° |
| 2026-05-04 12:15 | -34.10007 | 151.22751 | 2034 ft | 143 kts | 344° |
| 2026-05-04 12:16 | -34.08975 | 151.22478 | 2026 ft | 158 kts | 344° |
| 2026-05-04 12:16 | -34.07894 | 151.22196 | 2023 ft | 159 kts | 345° |
| 2026-05-04 12:16 | -34.06824 | 151.21917 | 1930 ft | 159 kts | 344° |
| 2026-05-04 12:16 | -34.05746 | 151.21637 | 1764 ft | 157 kts | 345° |
| 2026-05-04 12:17 | -34.04678 | 151.21359 | 1571 ft | 157 kts | 346° |
| 2026-05-04 12:17 | -34.03616 | 151.21083 | 1366 ft | 155 kts | 346° |
| 2026-05-04 12:17 | -34.02645 | 151.20831 | 1182 ft | 131 kts | 346° |
| 2026-05-04 12:17 | -34.01798 | 151.20611 | 1026 ft | 121 kts | 345° |
| 2026-05-04 12:18 | -34.00973 | 151.20395 | 859 ft | 124 kts | 348° |
| 2026-05-04 12:18 | -34.00131 | 151.20176 | 687 ft | 123 kts | 347° |
| 2026-05-04 12:18 | -33.99293 | 151.19958 | 519 ft | 123 kts | 347° |
| 2026-05-04 12:18 | -33.98446 | 151.19738 | 341 ft | 126 kts | 346° |
| 2026-05-04 12:19 | -33.97592 | 151.19516 | 176 ft | 126 kts | 345° |
| 2026-05-04 12:19 | -33.96738 | 151.19286 | 31 ft | 126 kts | 345° |
| 2026-05-04 12:19 | -33.96002 | 151.19079 | 29 ft | 71 kts | 343° |
| 2026-05-04 12:19 | -33.95848 | 151.19001 | 29 ft | 2 kts | 308° |
| 2026-05-04 12:20 | -33.95820 | 151.18970 | 28 ft | 11 kts | 320° |
| 2026-05-04 12:20 | -33.95747 | 151.18895 | 29 ft | 16 kts | 320° |